Time;durP1;ratioP1;P1;durP2;ratioP2;P2;SDS_P1;SDS_P2;PMS_P1;PMS_P2;Temp;Humidity;BMP_temperature;BMP_pressure;BME280_temperature;BME280_humidity;BME280_pressure;Samples;Min_cycle;Max_cycle;Signal;HPM_P1;HPM_P2
2022/01/31 00:02:06;;;;;;;;;;;3.50;99.90;;;;;;5036579;28;19967;-74
2022/01/31 00:04:32;;;;;;;;;;;3.50;99.90;;;;;;5036488;28;20433;-74
2022/01/31 00:06:57;;;;;;;;;;;3.50;99.90;;;;;;5053120;28;19951;-74
2022/01/31 00:09:24;;;;;;;;;;;3.50;99.90;;;;;;5036348;28;19924;-74
2022/01/31 00:11:59;;;;;;;;;;;3.40;99.90;;;;;;5036916;28;19929;-74
2022/01/31 00:14:43;;;;;;;;;;;3.40;99.90;;;;;;5034773;28;19921;-74
2022/01/31 00:17:09;;;;;;;;;;;3.40;99.90;;;;;;5025486;28;19983;-74
2022/01/31 00:19:37;;;;;;;;;;;3.40;99.90;;;;;;5053288;28;19989;-74
2022/01/31 00:22:04;;;;;;;;;;;3.50;99.90;;;;;;5036660;28;20401;-74
2022/01/31 00:24:29;;;;;;;;;;;3.50;99.90;;;;;;5036661;28;20033;-74
2022/01/31 00:26:55;;;;;;;;;;;3.60;99.90;;;;;;5036427;28;20363;-74
2022/01/31 00:29:20;;;;;;;;;;;3.60;99.90;;;;;;5034555;28;19921;-74
2022/01/31 00:31:46;;;;;;;;;;;3.60;99.90;;;;;;5036164;28;20023;-74
2022/01/31 00:34:12;;;;;;;;;;;3.70;99.90;;;;;;5052510;28;19927;-73
2022/01/31 00:36:37;;;;;;;;;;;3.70;99.90;;;;;;5036665;28;19921;-74
2022/01/31 00:39:03;;;;;;;;;;;3.70;99.90;;;;;;5036385;28;20544;-74
2022/01/31 00:41:29;;;;;;;;;;;3.70;99.90;;;;;;5036467;28;20023;-74
2022/01/31 00:44:00;;;;;;;;;;;3.70;99.90;;;;;;5035577;28;20019;-74
2022/01/31 00:46:34;;;;;;;;;;;3.80;99.90;;;;;;5036088;28;19927;-74
2022/01/31 00:49:00;;;;;;;;;;;3.80;99.90;;;;;;5035845;28;19931;-74
2022/01/31 00:51:25;;;;;;;;;;;3.90;99.90;;;;;;5035930;28;19925;-74
2022/01/31 00:53:51;;;;;;;;;;;3.90;99.90;;;;;;5035773;28;20321;-74
2022/01/31 00:56:16;;;;;;;;;;;3.90;99.90;;;;;;5035841;28;20383;-74
2022/01/31 00:58:42;;;;;;;;;;;3.90;99.90;;;;;;5036165;28;19927;-74
2022/01/31 01:01:07;;;;;;;;;;;3.90;99.90;;;;;;5035654;28;20414;-74
2022/01/31 01:03:33;;;;;;;;;;;3.90;99.90;;;;;;5035293;28;19925;-74
2022/01/31 01:05:58;;;;;;;;;;;3.90;99.90;;;;;;5068594;28;19967;-74
2022/01/31 01:08:24;;;;;;;;;;;3.90;99.90;;;;;;5035730;28;19968;-74
2022/01/31 01:10:49;;;;;;;;;;;3.90;99.90;;;;;;5035459;28;20310;-74
2022/01/31 01:13:15;;;;;;;;;;;3.90;99.90;;;;;;5051791;28;19925;-74
2022/01/31 01:15:40;;;;;;;;;;;3.90;99.90;;;;;;5035213;28;19920;-74
2022/01/31 01:18:06;;;;;;;;;;;3.90;99.90;;;;;;5035071;28;19933;-74
2022/01/31 01:20:32;;;;;;;;;;;3.90;99.90;;;;;;5035877;28;19925;-74
2022/01/31 01:22:57;;;;;;;;;;;3.90;99.90;;;;;;5051732;28;19921;-75
2022/01/31 01:25:23;;;;;;;;;;;3.80;99.90;;;;;;5051882;28;19921;-74
2022/01/31 01:27:52;;;;;;;;;;;3.80;99.90;;;;;;5034931;28;19925;-74
2022/01/31 01:30:18;;;;;;;;;;;3.60;99.90;;;;;;5035031;28;19960;-74
2022/01/31 01:32:59;;;;;;;;;;;3.60;99.90;;;;;;5034918;28;20135;-74
2022/01/31 01:35:29;;;;;;;;;;;3.50;99.90;;;;;;5052022;28;19928;-74
2022/01/31 01:37:54;;;;;;;;;;;3.50;99.90;;;;;;5052623;28;20298;-74
2022/01/31 01:40:20;;;;;;;;;;;3.40;99.90;;;;;;5034966;28;19920;-74
2022/01/31 01:42:45;;;;;;;;;;;3.40;99.90;;;;;;5051226;28;19920;-74
2022/01/31 01:45:11;;;;;;;;;;;3.30;99.90;;;;;;5051824;28;19924;-74
2022/01/31 01:47:36;;;;;;;;;;;3.30;99.90;;;;;;5034928;28;19921;-74
2022/01/31 01:50:03;;;;;;;;;;;3.30;99.90;;;;;;5051967;28;19960;-74
2022/01/31 01:52:28;;;;;;;;;;;3.40;99.90;;;;;;5034363;28;20294;-74
2022/01/31 01:54:54;;;;;;;;;;;3.30;99.90;;;;;;5051085;28;19920;-74
2022/01/31 01:57:22;;;;;;;;;;;3.30;99.90;;;;;;5052108;28;19920;-74
2022/01/31 01:59:54;;;;;;;;;;;3.30;99.90;;;;;;5051510;28;20436;-73
2022/01/31 02:02:19;;;;;;;;;;;3.30;99.90;;;;;;5051172;28;19932;-74
2022/01/31 02:04:44;;;;;;;;;;;3.30;99.90;;;;;;5059210;28;19920;-74
2022/01/31 02:07:12;;;;;;;;;;;3.30;99.90;;;;;;5031217;28;20524;-74
2022/01/31 02:09:43;;;;;;;;;;;3.30;99.90;;;;;;5047679;28;20378;-74
2022/01/31 02:12:09;;;;;;;;;;;3.30;99.90;;;;;;5052081;28;20588;-75
2022/01/31 02:14:35;;;;;;;;;;;3.30;99.90;;;;;;5034441;28;20039;-75
2022/01/31 02:17:00;;;;;;;;;;;3.40;99.90;;;;;;5033636;28;19924;-75
2022/01/31 02:19:26;;;;;;;;;;;3.30;99.90;;;;;;5034653;28;19937;-75
2022/01/31 02:21:52;;;;;;;;;;;3.40;99.90;;;;;;5067142;28;19921;-75
2022/01/31 02:24:18;;;;;;;;;;;3.40;99.90;;;;;;5033820;28;20004;-75
2022/01/31 02:26:44;;;;;;;;;;;3.30;99.90;;;;;;5067643;28;20248;-75
2022/01/31 02:29:12;;;;;;;;;;;3.40;99.90;;;;;;5050932;28;19924;-75
2022/01/31 02:31:47;;;;;;;;;;;3.30;99.90;;;;;;5050848;28;20387;-75
2022/01/31 02:34:13;;;;;;;;;;;3.40;99.90;;;;;;5050480;28;19931;-75
2022/01/31 02:36:39;;;;;;;;;;;3.40;99.90;;;;;;5050989;28;19924;-75
2022/01/31 02:39:05;;;;;;;;;;;3.40;99.90;;;;;;5050667;28;19920;-75
2022/01/31 02:41:31;;;;;;;;;;;3.40;99.90;;;;;;5050771;28;19924;-76
2022/01/31 02:43:57;;;;;;;;;;;3.30;99.90;;;;;;5050539;28;19921;-75
2022/01/31 02:46:25;;;;;;;;;;;3.30;99.90;;;;;;5050834;28;19921;-75
2022/01/31 02:48:53;;;;;;;;;;;3.30;99.90;;;;;;5034097;28;19921;-75
2022/01/31 02:51:22;;;;;;;;;;;3.40;99.90;;;;;;5033910;28;19971;-76
2022/01/31 02:53:48;;;;;;;;;;;3.40;99.90;;;;;;5033748;28;19921;-75
2022/01/31 02:56:14;;;;;;;;;;;3.50;99.90;;;;;;5034055;28;19920;-75
2022/01/31 02:58:39;;;;;;;;;;;3.40;99.90;;;;;;5034461;28;19990;-75
2022/01/31 03:01:05;;;;;;;;;;;3.40;99.90;;;;;;5051143;28;19924;-75
2022/01/31 03:03:30;;;;;;;;;;;3.50;99.90;;;;;;5050350;28;19920;-76
2022/01/31 03:05:56;;;;;;;;;;;3.50;99.90;;;;;;5033735;28;19921;-74
2022/01/31 03:08:25;;;;;;;;;;;3.60;99.90;;;;;;5050695;28;19921;-75
2022/01/31 03:10:52;;;;;;;;;;;3.60;99.90;;;;;;5034289;28;19968;-76
2022/01/31 03:13:18;;;;;;;;;;;3.70;99.90;;;;;;5050431;28;19925;-75
2022/01/31 03:15:43;;;;;;;;;;;3.70;99.90;;;;;;5033801;28;19928;-76
2022/01/31 03:18:09;;;;;;;;;;;3.80;99.90;;;;;;5050600;28;20559;-76
2022/01/31 03:20:34;;;;;;;;;;;3.80;99.90;;;;;;5050439;28;19921;-76
2022/01/31 03:23:00;;;;;;;;;;;4.00;99.90;;;;;;5033312;28;20382;-75
2022/01/31 03:25:26;;;;;;;;;;;4.00;99.90;;;;;;5033905;28;19968;-75
2022/01/31 03:27:51;;;;;;;;;;;4.10;99.90;;;;;;5035383;28;19924;-75
2022/01/31 03:30:18;;;;;;;;;;;4.20;99.90;;;;;;5037435;28;19921;-76
2022/01/31 03:32:44;;;;;;;;;;;4.20;99.90;;;;;;5037244;28;20025;-75
2022/01/31 03:35:10;;;;;;;;;;;4.30;99.90;;;;;;5037549;28;20458;-75
2022/01/31 03:37:36;;;;;;;;;;;4.40;99.90;;;;;;5037160;28;19924;-76
2022/01/31 03:40:02;;;;;;;;;;;4.50;99.90;;;;;;5037623;28;19921;-75
2022/01/31 03:42:28;;;;;;;;;;;4.60;99.90;;;;;;5037674;28;19920;-76
2022/01/31 03:44:53;;;;;;;;;;;4.60;99.90;;;;;;5037307;28;20027;-75
2022/01/31 03:47:21;;;;;;;;;;;4.60;99.90;;;;;;5053601;28;19931;-75
2022/01/31 03:49:47;;;;;;;;;;;4.60;99.90;;;;;;5037188;28;19970;-75
2022/01/31 03:52:12;;;;;;;;;;;4.60;99.90;;;;;;5036764;28;19929;-75
2022/01/31 03:54:38;;;;;;;;;;;4.60;99.90;;;;;;5037382;28;19971;-75
2022/01/31 03:57:03;;;;;;;;;;;4.70;99.90;;;;;;5037071;28;19921;-75
2022/01/31 03:59:29;;;;;;;;;;;4.80;99.90;;;;;;5037012;28;19924;-75
2022/01/31 04:01:54;;;;;;;;;;;4.90;99.90;;;;;;5036714;28;19920;-75
2022/01/31 04:04:20;;;;;;;;;;;4.90;99.90;;;;;;5036669;28;19921;-75
2022/01/31 04:06:45;;;;;;;;;;;5.00;99.90;;;;;;5053538;28;20003;-75
2022/01/31 04:09:11;;;;;;;;;;;5.00;99.90;;;;;;5036890;28;20007;-74
2022/01/31 04:11:36;;;;;;;;;;;5.00;99.90;;;;;;5037186;28;19983;-74
2022/01/31 04:14:02;;;;;;;;;;;5.00;99.90;;;;;;5036324;28;19921;-74
2022/01/31 04:16:27;;;;;;;;;;;5.00;99.90;;;;;;5036708;28;19928;-74
2022/01/31 04:18:53;;;;;;;;;;;5.00;99.90;;;;;;5036906;28;19972;-73
2022/01/31 04:21:18;;;;;;;;;;;5.10;99.90;;;;;;5036910;28;19921;-74
2022/01/31 04:23:46;;;;;;;;;;;5.00;99.90;;;;;;5036494;28;19920;-74
2022/01/31 04:26:13;;;;;;;;;;;5.10;99.90;;;;;;5053183;28;20267;-74
2022/01/31 04:28:49;;;;;;;;;;;5.00;99.90;;;;;;5036162;28;19956;-74
2022/01/31 04:33:50;;;;;;;;;;;5.00;99.90;;;;;;5053929;28;19921;-75
2022/01/31 04:36:16;;;;;;;;;;;4.90;99.90;;;;;;5036333;28;19963;-75
2022/01/31 04:38:42;;;;;;;;;;;4.90;99.90;;;;;;5036186;28;20314;-75
2022/01/31 04:41:08;;;;;;;;;;;4.80;99.90;;;;;;5069230;28;19921;-75
2022/01/31 04:43:33;;;;;;;;;;;4.70;99.90;;;;;;5035631;28;19935;-75
2022/01/31 04:46:01;;;;;;;;;;;4.60;99.90;;;;;;5036289;28;19928;-75
2022/01/31 04:48:27;;;;;;;;;;;4.60;99.90;;;;;;5036000;28;19921;-75
2022/01/31 04:50:53;;;;;;;;;;;4.60;99.90;;;;;;5036270;28;19928;-75
2022/01/31 04:53:18;;;;;;;;;;;4.50;99.90;;;;;;5035602;28;19925;-75
2022/01/31 04:55:44;;;;;;;;;;;4.50;99.90;;;;;;5035482;28;20363;-75
2022/01/31 04:58:10;;;;;;;;;;;4.50;99.90;;;;;;5052240;28;19989;-75
2022/01/31 05:00:35;;;;;;;;;;;4.50;99.90;;;;;;5036161;28;19920;-74
2022/01/31 05:03:02;;;;;;;;;;;4.50;99.90;;;;;;5035122;28;19928;-75
2022/01/31 05:05:27;;;;;;;;;;;4.60;99.90;;;;;;5052428;28;19921;-75
2022/01/31 05:07:55;;;;;;;;;;;4.60;99.90;;;;;;5035341;28;20019;-75
2022/01/31 05:10:20;;;;;;;;;;;4.60;99.90;;;;;;5051826;28;19921;-75
2022/01/31 05:12:46;;;;;;;;;;;4.60;99.90;;;;;;5035299;28;19959;-74
2022/01/31 05:15:12;;;;;;;;;;;4.60;99.90;;;;;;5035082;28;20290;-75
2022/01/31 05:17:37;;;;;;;;;;;4.60;99.90;;;;;;5052257;28;19921;-74
2022/01/31 05:20:03;;;;;;;;;;;4.60;99.90;;;;;;5035631;28;19975;-74
2022/01/31 05:22:29;;;;;;;;;;;4.60;99.90;;;;;;5034812;28;19921;-74
2022/01/31 05:24:54;;;;;;;;;;;4.60;99.90;;;;;;5035307;28;20424;-73
2022/01/31 05:27:21;;;;;;;;;;;4.70;99.90;;;;;;5035259;28;19928;-73
2022/01/31 05:29:46;;;;;;;;;;;4.60;99.90;;;;;;5035548;28;20268;-74
2022/01/31 05:32:12;;;;;;;;;;;4.60;99.90;;;;;;5034860;28;19943;-74
2022/01/31 05:34:37;;;;;;;;;;;4.50;99.90;;;;;;5034504;28;19983;-75
2022/01/31 05:37:03;;;;;;;;;;;4.50;99.90;;;;;;5034848;28;19986;-75
2022/01/31 05:39:29;;;;;;;;;;;4.40;99.90;;;;;;5034918;28;19932;-74
2022/01/31 05:41:55;;;;;;;;;;;4.30;99.90;;;;;;5035151;28;19964;-74
2022/01/31 05:44:21;;;;;;;;;;;4.20;99.90;;;;;;5034475;28;19924;-74
2022/01/31 05:46:46;;;;;;;;;;;4.20;99.90;;;;;;5034530;28;19921;-75
2022/01/31 05:49:12;;;;;;;;;;;4.20;99.90;;;;;;5051251;28;19931;-75
2022/01/31 05:51:48;;;;;;;;;;;4.20;99.90;;;;;;5067061;28;19925;-74
2022/01/31 05:54:13;;;;;;;;;;;4.20;99.90;;;;;;5035012;28;19978;-74
2022/01/31 05:56:39;;;;;;;;;;;4.20;99.90;;;;;;5051634;28;19928;-74
2022/01/31 05:59:04;;;;;;;;;;;4.20;99.90;;;;;;5034739;28;19927;-74
2022/01/31 06:01:29;;;;;;;;;;;4.20;99.90;;;;;;5027398;28;19972;-74
2022/01/31 06:03:55;;;;;;;;;;;4.20;99.90;;;;;;5026153;28;19924;-74
2022/01/31 06:06:20;;;;;;;;;;;4.30;99.90;;;;;;5050558;28;19920;-74
2022/01/31 06:08:46;;;;;;;;;;;4.30;99.90;;;;;;5033988;28;19927;-76
2022/01/31 06:11:14;;;;;;;;;;;4.30;99.90;;;;;;5031085;28;19921;-75
2022/01/31 06:13:44;;;;;;;;;;;4.30;99.90;;;;;;5034212;28;19944;-76
2022/01/31 06:16:10;;;;;;;;;;;4.30;99.90;;;;;;5034891;28;19928;-76
2022/01/31 06:18:36;;;;;;;;;;;4.40;99.90;;;;;;5034161;28;20406;-72
2022/01/31 06:21:02;;;;;;;;;;;4.50;99.90;;;;;;5051183;28;19974;-75
2022/01/31 06:23:29;;;;;;;;;;;4.40;99.90;;;;;;5025395;28;19964;-76
2022/01/31 06:25:54;;;;;;;;;;;4.50;99.90;;;;;;5020187;28;20007;-76
2022/01/31 06:28:21;;;;;;;;;;;4.50;99.90;;;;;;5016471;28;20378;-76
2022/01/31 06:30:46;;;;;;;;;;;4.50;99.90;;;;;;5033638;28;19924;-76
2022/01/31 06:33:16;;;;;;;;;;;4.60;99.90;;;;;;5014144;28;20482;-76
2022/01/31 06:35:44;;;;;;;;;;;4.60;99.90;;;;;;5017470;28;19929;-76
2022/01/31 06:38:10;;;;;;;;;;;4.60;99.90;;;;;;5034993;28;19927;-76
2022/01/31 06:40:39;;;;;;;;;;;4.60;99.90;;;;;;5033470;28;20003;-77
2022/01/31 06:43:04;;;;;;;;;;;4.70;99.90;;;;;;5033386;28;20008;-77
2022/01/31 06:45:30;;;;;;;;;;;4.60;99.90;;;;;;5034544;28;20020;-77
2022/01/31 06:47:56;;;;;;;;;;;4.70;99.90;;;;;;5034426;28;19927;-78
2022/01/31 06:50:23;;;;;;;;;;;4.60;99.90;;;;;;5034756;28;20379;-78
2022/01/31 06:52:53;;;;;;;;;;;4.60;99.90;;;;;;5033336;28;20038;-78
2022/01/31 06:55:21;;;;;;;;;;;4.60;99.90;;;;;;5033940;28;20370;-77
2022/01/31 06:57:48;;;;;;;;;;;4.60;99.90;;;;;;5034540;28;19965;-78
2022/01/31 07:00:22;;;;;;;;;;;4.50;99.90;;;;;;5031861;28;19937;-77
2022/01/31 07:02:50;;;;;;;;;;;4.50;99.90;;;;;;5027319;28;20456;-75
2022/01/31 07:05:16;;;;;;;;;;;4.50;99.90;;;;;;5028968;28;19920;-75
2022/01/31 07:07:45;;;;;;;;;;;4.50;99.90;;;;;;5029930;28;19920;-76
2022/01/31 07:10:13;;;;;;;;;;;4.50;99.90;;;;;;5035845;28;19929;-77
2022/01/31 07:12:48;;;;;;;;;;;4.60;99.90;;;;;;5026116;28;19936;-77
2022/01/31 07:15:14;;;;;;;;;;;4.60;99.90;;;;;;5023391;28;19928;-78
2022/01/31 07:17:48;;;;;;;;;;;4.50;99.90;;;;;;5051530;28;20426;-76
2022/01/31 07:20:33;;;;;;;;;;;4.50;99.90;;;;;;5046633;28;19921;-76
2022/01/31 07:26:20;;;;;;;;;;;4.50;99.90;;;;;;5039485;28;19967;-76
2022/01/31 07:29:02;;;;;;;;;;;4.60;99.90;;;;;;5037784;28;19928;-76
2022/01/31 07:31:39;;;;;;;;;;;4.60;99.90;;;;;;5038059;28;19932;-76
2022/01/31 07:34:08;;;;;;;;;;;4.60;99.90;;;;;;5037402;28;19932;-76
2022/01/31 07:36:40;;;;;;;;;;;4.60;99.90;;;;;;5037576;28;19925;-76
2022/01/31 07:39:08;;;;;;;;;;;4.60;99.90;;;;;;5037037;28;19927;-76
2022/01/31 07:44:28;;;;;;;;;;;4.70;99.90;;;;;;5054053;28;19920;-76
2022/01/31 07:47:03;;;;;;;;;;;4.70;99.90;;;;;;5054402;28;19944;-76
2022/01/31 07:52:26;;;;;;;;;;;4.80;99.90;;;;;;5053396;28;20266;-76
2022/01/31 07:54:55;;;;;;;;;;;4.90;99.90;;;;;;5036944;28;19921;-76
2022/01/31 07:57:26;;;;;;;;;;;4.90;99.90;;;;;;5037787;28;19943;-77
2022/01/31 07:59:52;;;;;;;;;;;4.90;99.90;;;;;;5037042;28;19920;-76
2022/01/31 08:02:24;;;;;;;;;;;5.00;99.90;;;;;;5053771;28;19920;-76
2022/01/31 08:04:54;;;;;;;;;;;5.00;99.90;;;;;;5037395;28;19925;-76
2022/01/31 08:07:45;;;;;;;;;;;5.00;99.90;;;;;;5037992;28;20260;-76
2022/01/31 08:10:15;;;;;;;;;;;5.00;99.90;;;;;;5038330;28;20016;-76
2022/01/31 08:13:03;;;;;;;;;;;5.00;99.90;;;;;;5036686;28;19932;-76
2022/01/31 08:16:42;;;;;;;;;;;5.00;99.90;;;;;;5036252;28;19928;-76
2022/01/31 08:18:44;;;;;;;;;;;5.10;99.90;;;;;;5044323;28;20003;-76
2022/01/31 08:21:24;;;;;;;;;;;5.10;99.90;;;;;;5036592;28;20008;-76
2022/01/31 08:23:56;;;;;;;;;;;5.10;99.90;;;;;;5037307;28;20359;-76
2022/01/31 08:26:27;;;;;;;;;;;5.20;99.90;;;;;;5037001;28;20011;-76
2022/01/31 08:29:02;;;;;;;;;;;5.20;99.90;;;;;;5036924;28;19970;-77
2022/01/31 08:31:35;;;;;;;;;;;5.30;99.90;;;;;;5036774;28;19925;-76
2022/01/31 08:36:42;;;;;;;;;;;5.40;99.90;;;;;;5052361;28;19921;-76
2022/01/31 08:39:19;;;;;;;;;;;5.40;99.90;;;;;;5036723;28;20364;-76
2022/01/31 08:41:52;;;;;;;;;;;5.50;99.90;;;;;;5036129;28;19921;-76
2022/01/31 08:44:24;;;;;;;;;;;5.50;99.90;;;;;;5036554;28;20326;-76
2022/01/31 08:46:53;;;;;;;;;;;5.50;99.90;;;;;;5036388;28;19924;-76
2022/01/31 08:49:29;;;;;;;;;;;5.50;99.90;;;;;;5036594;28;20390;-76
2022/01/31 08:51:58;;;;;;;;;;;5.50;99.90;;;;;;5036014;28;19925;-76
2022/01/31 08:54:37;;;;;;;;;;;5.60;99.90;;;;;;5036121;28;19921;-76
2022/01/31 08:57:06;;;;;;;;;;;5.60;99.90;;;;;;5036307;28;19921;-76
2022/01/31 08:59:43;;;;;;;;;;;5.60;99.90;;;;;;5036500;28;19920;-76
2022/01/31 09:02:17;;;;;;;;;;;5.70;99.90;;;;;;5052814;28;20000;-76
2022/01/31 09:04:48;;;;;;;;;;;5.70;99.90;;;;;;5035644;28;19925;-76
2022/01/31 09:07:20;;;;;;;;;;;5.70;99.90;;;;;;5036068;28;20117;-76
2022/01/31 09:09:57;;;;;;;;;;;5.70;99.90;;;;;;5035844;28;19947;-76
2022/01/31 09:12:33;;;;;;;;;;;5.80;99.90;;;;;;5035637;28;19925;-76
2022/01/31 09:15:06;;;;;;;;;;;5.80;99.90;;;;;;5036674;28;19920;-77
2022/01/31 09:17:32;;;;;;;;;;;5.80;99.90;;;;;;5035591;28;19920;-76
2022/01/31 09:20:13;;;;;;;;;;;5.70;99.90;;;;;;5052445;28;19928;-77
2022/01/31 09:22:38;;;;;;;;;;;5.80;99.90;;;;;;5035271;28;19921;-76
2022/01/31 09:25:07;;;;;;;;;;;5.80;99.90;;;;;;5035424;28;20279;-76
2022/01/31 09:27:44;;;;;;;;;;;5.80;99.90;;;;;;5035293;28;19968;-76
2022/01/31 09:30:11;;;;;;;;;;;5.80;99.90;;;;;;5051626;28;19929;-76
2022/01/31 09:32:41;;;;;;;;;;;5.90;99.90;;;;;;5035176;28;19925;-77
2022/01/31 09:35:09;;;;;;;;;;;6.00;99.90;;;;;;5035949;28;19990;-76
2022/01/31 09:37:38;;;;;;;;;;;6.10;99.90;;;;;;5034772;28;19921;-77
2022/01/31 09:40:06;;;;;;;;;;;6.10;99.90;;;;;;5034990;28;19961;-76
2022/01/31 09:42:41;;;;;;;;;;;6.20;99.90;;;;;;5034967;28;20347;-77
2022/01/31 09:45:22;;;;;;;;;;;6.20;99.90;;;;;;5035246;28;19921;-77
2022/01/31 09:50:30;;;;;;;;;;;6.20;99.90;;;;;;5051740;28;19935;-77
2022/01/31 09:52:56;;;;;;;;;;;6.10;99.90;;;;;;5034818;28;19924;-76
2022/01/31 09:55:25;;;;;;;;;;;6.30;99.90;;;;;;5035204;28;20359;-77
2022/01/31 09:57:58;;;;;;;;;;;6.40;99.90;;;;;;5034592;28;20007;-77
2022/01/31 10:00:33;;;;;;;;;;;6.50;99.90;;;;;;5037827;28;19921;-77
2022/01/31 10:03:08;;;;;;;;;;;6.90;99.90;;;;;;5038493;28;19972;-76
2022/01/31 10:05:37;;;;;;;;;;;7.40;99.90;;;;;;5034725;28;19921;-76
2022/01/31 10:08:10;;;;;;;;;;;8.00;99.90;;;;;;5034981;28;20283;-77
2022/01/31 10:10:43;;;;;;;;;;;8.20;99.90;;;;;;5035097;28;19921;-77
2022/01/31 10:16:30;;;;;;;;;;;8.00;99.90;;;;;;5051163;28;20415;-76
2022/01/31 10:19:03;;;;;;;;;;;8.00;99.90;;;;;;5035026;28;19927;-77
2022/01/31 10:21:32;;;;;;;;;;;8.00;99.90;;;;;;5034417;28;20456;-77
2022/01/31 10:23:58;;;;;;;;;;;7.90;99.90;;;;;;5034143;28;20008;-77
2022/01/31 10:26:31;;;;;;;;;;;7.80;99.90;;;;;;5034681;28;20016;-77
2022/01/31 10:29:19;;;;;;;;;;;7.80;99.90;;;;;;5034493;28;19940;-76
2022/01/31 10:32:06;;;;;;;;;;;7.70;99.90;;;;;;5034929;28;19956;-77
2022/01/31 10:34:34;;;;;;;;;;;7.70;99.90;;;;;;5035204;28;20287;-76
2022/01/31 10:37:13;;;;;;;;;;;7.80;99.90;;;;;;5034087;28;20280;-77
2022/01/31 10:51:01;;;;;;;;;;;7.60;99.90;;;;;;5051009;28;20323;-77
2022/01/31 10:53:36;;;;;;;;;;;7.60;99.90;;;;;;5033985;28;19925;-77
2022/01/31 10:56:05;;;;;;;;;;;7.60;99.90;;;;;;5034162;28;19921;-77
2022/01/31 10:58:31;;;;;;;;;;;7.60;99.90;;;;;;5034399;28;19991;-77
2022/01/31 11:01:10;;;;;;;;;;;7.50;99.90;;;;;;5034092;28;20457;-77
2022/01/31 11:03:36;;;;;;;;;;;7.50;99.90;;;;;;5034217;28;20279;-77
2022/01/31 11:06:05;;;;;;;;;;;7.40;99.90;;;;;;5050552;28;19928;-77
2022/01/31 11:08:31;;;;;;;;;;;7.40;99.90;;;;;;5034311;28;19964;-77
2022/01/31 11:11:00;;;;;;;;;;;7.50;99.90;;;;;;5034428;28;20095;-77
2022/01/31 11:13:28;;;;;;;;;;;7.70;99.90;;;;;;5033664;28;19925;-77
2022/01/31 11:15:57;;;;;;;;;;;8.00;99.90;;;;;;5034189;28;19921;-77
2022/01/31 11:18:32;;;;;;;;;;;8.00;99.90;;;;;;5034574;28;19921;-77
2022/01/31 11:21:02;;;;;;;;;;;7.90;99.90;;;;;;5034791;28;19983;-77
2022/01/31 11:23:33;;;;;;;;;;;7.80;99.90;;;;;;5033739;28;19927;-77
2022/01/31 11:26:00;;;;;;;;;;;7.70;99.90;;;;;;5033409;28;19948;-77
2022/01/31 11:28:30;;;;;;;;;;;7.50;99.90;;;;;;5033606;28;19921;-77
2022/01/31 11:30:56;;;;;;;;;;;7.40;99.90;;;;;;5034008;28;19975;-77
2022/01/31 11:33:23;;;;;;;;;;;7.20;99.90;;;;;;5033276;28;19979;-77
2022/01/31 11:35:49;;;;;;;;;;;7.10;99.90;;;;;;5033931;28;20011;-77
2022/01/31 11:38:15;;;;;;;;;;;7.10;99.90;;;;;;5033646;28;19947;-77
2022/01/31 11:40:44;;;;;;;;;;;7.10;99.90;;;;;;5034381;28;19999;-77
2022/01/31 11:43:16;;;;;;;;;;;7.10;99.90;;;;;;5032812;28;20367;-77
2022/01/31 11:45:42;;;;;;;;;;;7.10;99.90;;;;;;5033381;28;19928;-77
2022/01/31 11:48:19;;;;;;;;;;;7.10;99.90;;;;;;5050220;28;19963;-77
2022/01/31 11:50:46;;;;;;;;;;;7.00;99.90;;;;;;5036634;28;19922;-77
2022/01/31 11:53:18;;;;;;;;;;;6.90;99.90;;;;;;5053550;28;19983;-77
2022/01/31 11:55:49;;;;;;;;;;;6.80;99.90;;;;;;5037768;28;20387;-77
2022/01/31 11:58:28;;;;;;;;;;;6.70;99.90;;;;;;5037407;28;20015;-78
2022/01/31 12:01:14;;;;;;;;;;;6.70;99.90;;;;;;5036843;28;19920;-77
2022/01/31 12:04:13;;;;;;;;;;;6.60;99.90;;;;;;5036828;28;19925;-78
2022/01/31 12:06:44;;;;;;;;;;;6.60;99.90;;;;;;5029642;28;19925;-77
2022/01/31 12:09:16;;;;;;;;;;;6.70;99.90;;;;;;5037649;28;20402;-77
2022/01/31 12:11:58;;;;;;;;;;;6.80;99.90;;;;;;5037669;28;20437;-77
2022/01/31 12:14:52;;;;;;;;;;;6.90;99.90;;;;;;5037858;28;19920;-77
2022/01/31 12:23:40;;;;;;;;;;;7.10;99.90;;;;;;5052997;28;20453;-77
2022/01/31 12:26:26;;;;;;;;;;;7.10;99.90;;;;;;5035943;28;19968;-77
2022/01/31 12:28:58;;;;;;;;;;;7.20;99.90;;;;;;5036786;28;19921;-77
2022/01/31 12:31:27;;;;;;;;;;;7.20;99.90;;;;;;5036851;28;19943;-77
2022/01/31 12:33:53;;;;;;;;;;;7.40;99.90;;;;;;5053016;28;19931;-77
2022/01/31 12:36:50;;;;;;;;;;;8.10;99.90;;;;;;5036835;28;19925;-77
2022/01/31 12:39:43;;;;;;;;;;;9.00;99.90;;;;;;5036369;28;19921;-77
2022/01/31 12:45:16;;;;;;;;;;;9.10;99.90;;;;;;5047879;28;19960;-77
2022/01/31 12:48:07;;;;;;;;;;;9.20;99.90;;;;;;5036307;28;19932;-77
2022/01/31 12:50:58;;;;;;;;;;;9.30;99.90;;;;;;5036326;28;19921;-77
2022/01/31 12:53:47;;;;;;;;;;;9.20;99.90;;;;;;5016021;28;20371;-77
2022/01/31 12:56:21;;;;;;;;;;;9.00;99.90;;;;;;5036292;28;20406;-77
2022/01/31 12:58:49;;;;;;;;;;;8.80;99.90;;;;;;5036184;28;20003;-77
2022/01/31 13:01:20;;;;;;;;;;;8.60;99.90;;;;;;5036342;28;19921;-77
2022/01/31 13:03:50;;;;;;;;;;;8.50;99.90;;;;;;5069019;28;19921;-77
2022/01/31 13:06:23;;;;;;;;;;;8.30;99.90;;;;;;5035623;28;19921;-77
2022/01/31 13:08:51;;;;;;;;;;;8.20;99.90;;;;;;5036474;28;20015;-77
2022/01/31 13:11:20;;;;;;;;;;;8.10;99.90;;;;;;5035981;28;20054;-77
2022/01/31 13:13:46;;;;;;;;;;;8.00;99.90;;;;;;5052018;28;19970;-77
2022/01/31 13:16:15;;;;;;;;;;;7.90;99.90;;;;;;5018834;28;19924;-77
2022/01/31 13:18:42;;;;;;;;;;;7.90;99.90;;;;;;5035761;28;20281;-77
2022/01/31 13:21:13;;;;;;;;;;;7.80;99.90;;;;;;5035953;28;20342;-77
2022/01/31 13:23:40;;;;;;;;;;;7.80;99.90;;;;;;5035479;28;19921;-77
2022/01/31 13:26:14;;;;;;;;;;;7.80;99.90;;;;;;5035641;28;19921;-77
2022/01/31 13:28:48;;;;;;;;;;;8.00;99.90;;;;;;5035326;28;19966;-77
2022/01/31 13:31:17;;;;;;;;;;;8.00;99.90;;;;;;5052070;28;20007;-77
2022/01/31 13:34:00;;;;;;;;;;;8.00;99.90;;;;;;5035281;28;19925;-77
2022/01/31 13:36:34;;;;;;;;;;;8.00;99.90;;;;;;5036171;28;19928;-77
2022/01/31 13:39:02;;;;;;;;;;;7.60;99.90;;;;;;5035835;28;20034;-77
2022/01/31 13:41:36;;;;;;;;;;;7.40;99.90;;;;;;5035490;28;19920;-77
2022/01/31 13:44:22;;;;;;;;;;;7.20;99.90;;;;;;5049938;28;19920;-77
2022/01/31 13:47:03;;;;;;;;;;;7.10;99.90;;;;;;5051815;28;19921;-77
2022/01/31 13:49:39;;;;;;;;;;;7.00;99.90;;;;;;5035994;28;20272;-77
2022/01/31 13:52:21;;;;;;;;;;;6.80;99.90;;;;;;5035412;28;19925;-77
2022/01/31 13:55:03;;;;;;;;;;;7.00;99.90;;;;;;5035978;28;19921;-77
2022/01/31 13:57:33;;;;;;;;;;;6.90;99.90;;;;;;5035408;28;20289;-77
2022/01/31 14:00:10;;;;;;;;;;;7.00;99.90;;;;;;5035159;28;19931;-76
2022/01/31 14:02:39;;;;;;;;;;;7.10;99.90;;;;;;5051305;28;19928;-77
2022/01/31 14:05:58;;;;;;;;;;;7.10;99.90;;;;;;5034849;28;20059;-77
2022/01/31 14:08:26;;;;;;;;;;;7.20;99.90;;;;;;4997491;28;19921;-77
2022/01/31 14:11:08;;;;;;;;;;;7.10;99.90;;;;;;5032629;28;20027;-76
2022/01/31 14:13:38;;;;;;;;;;;7.10;99.90;;;;;;5034052;28;19925;-76
2022/01/31 14:16:12;;;;;;;;;;;7.20;99.90;;;;;;5035498;28;19927;-77
2022/01/31 14:18:38;;;;;;;;;;;7.10;99.90;;;;;;5034948;28;19920;-77
2022/01/31 14:21:10;;;;;;;;;;;7.10;99.90;;;;;;5034686;28;19940;-77
2022/01/31 14:23:42;;;;;;;;;;;7.10;99.90;;;;;;5034442;28;19920;-77
2022/01/31 14:26:14;;;;;;;;;;;7.10;99.90;;;;;;5034667;28;19927;-77
2022/01/31 14:28:46;;;;;;;;;;;7.10;99.90;;;;;;5051490;28;19970;-77
2022/01/31 14:31:15;;;;;;;;;;;7.10;99.90;;;;;;5035009;28;19925;-77
2022/01/31 14:33:48;;;;;;;;;;;7.20;99.90;;;;;;5034024;28;19925;-77
2022/01/31 14:36:16;;;;;;;;;;;7.10;99.90;;;;;;5034423;28;19921;-77
2022/01/31 14:47:27;;;;;;;;;;;6.90;99.90;;;;;;5051232;28;20015;-77
2022/01/31 14:50:14;;;;;;;;;;;6.90;99.90;;;;;;5050684;28;19920;-77
2022/01/31 14:52:40;;;;;;;;;;;6.90;99.90;;;;;;5033549;28;20015;-77
2022/01/31 14:55:10;;;;;;;;;;;6.90;99.90;;;;;;5034281;28;20319;-77
2022/01/31 14:57:36;;;;;;;;;;;6.90;99.90;;;;;;5034225;28;20437;-76
2022/01/31 15:00:07;;;;;;;;;;;6.90;99.90;;;;;;5033993;28;19927;-77
2022/01/31 15:02:33;;;;;;;;;;;6.90;99.90;;;;;;5033906;28;19924;-77
2022/01/31 15:05:13;;;;;;;;;;;6.90;99.90;;;;;;5034910;28;19920;-77
2022/01/31 15:07:39;;;;;;;;;;;6.90;99.90;;;;;;5034152;28;19975;-77
2022/01/31 15:10:09;;;;;;;;;;;6.80;99.90;;;;;;5013552;28;19921;-77
2022/01/31 15:12:35;;;;;;;;;;;6.80;99.90;;;;;;5034142;28;19978;-77
2022/01/31 15:15:24;;;;;;;;;;;6.70;99.90;;;;;;5033846;28;19921;-77
2022/01/31 15:17:54;;;;;;;;;;;6.60;99.90;;;;;;5034062;28;19928;-77
2022/01/31 15:20:20;;;;;;;;;;;6.50;99.90;;;;;;5033771;28;19929;-77
2022/01/31 15:22:56;;;;;;;;;;;6.50;99.90;;;;;;5050406;28;19921;-77
2022/01/31 15:25:33;;;;;;;;;;;6.50;99.90;;;;;;5040435;28;19921;-77
2022/01/31 15:28:00;;;;;;;;;;;6.40;99.90;;;;;;5037752;28;20295;-77
2022/01/31 15:30:35;;;;;;;;;;;6.40;99.90;;;;;;5052164;28;19928;-77
2022/01/31 15:33:09;;;;;;;;;;;6.30;99.90;;;;;;5036893;28;19925;-77
2022/01/31 15:35:45;;;;;;;;;;;6.30;99.90;;;;;;5037413;28;19920;-77
2022/01/31 15:38:19;;;;;;;;;;;6.30;99.90;;;;;;5037122;28;19924;-77